createdAt,value
2023-02-20T00:01:34.505Z,8.65
2023-02-20T00:04:02.017Z,6.85
2023-02-20T00:06:29.543Z,11.13
2023-02-20T00:08:57.004Z,7.90
2023-02-20T00:11:24.489Z,6.38
2023-02-20T00:13:53.260Z,9.50
2023-02-20T00:21:15.610Z,5.30
2023-02-20T00:23:43.157Z,7.53
2023-02-20T00:26:11.287Z,9.05
2023-02-20T00:28:39.313Z,4.85
2023-02-20T00:31:08.855Z,7.03
2023-02-20T00:33:36.733Z,9.90
2023-02-20T00:36:04.542Z,6.75
2023-02-20T00:38:32.040Z,7.50
2023-02-20T00:40:59.521Z,12.65
2023-02-20T00:43:26.980Z,2.10
2023-02-20T00:45:55.717Z,9.32
2023-02-20T00:48:24.477Z,10.77
2023-02-20T00:53:19.706Z,7.65
2023-02-20T00:55:47.231Z,9.93
2023-02-20T00:58:14.653Z,12.05
2023-02-20T01:00:42.106Z,8.38
2023-02-20T01:03:09.551Z,7.47
2023-02-20T01:05:38.310Z,7.00
2023-02-20T01:10:33.283Z,2.22
2023-02-20T01:13:00.739Z,5.22
2023-02-20T01:15:28.184Z,7.53
2023-02-20T01:17:55.796Z,5.40
2023-02-20T01:20:23.401Z,13.48
2023-02-20T01:22:52.196Z,11.23
2023-02-20T01:27:47.219Z,12.57
2023-02-20T01:30:15.046Z,5.40
2023-02-20T01:32:42.798Z,6.53
2023-02-20T01:35:10.521Z,6.38
2023-02-20T01:37:37.954Z,7.85
2023-02-20T01:40:08.194Z,8.30
2023-02-20T01:42:36.277Z,8.88
2023-02-20T01:45:19.101Z,12.25
2023-02-20T01:47:46.593Z,8.48
2023-02-20T01:50:15.435Z,8.48
2023-02-20T01:52:44.631Z,9.68
2023-02-20T01:55:16.761Z,7.68
2023-02-20T01:57:52.322Z,7.13
2023-02-20T02:00:24.228Z,2.67
2023-02-20T02:02:56.152Z,8.25
2023-02-20T02:05:25.806Z,7.13
2023-02-20T02:07:53.605Z,7.85
2023-02-20T02:10:29.081Z,3.53
2023-02-20T02:12:56.619Z,7.15
2023-02-20T02:15:25.091Z,5.00
2023-02-20T02:18:16.306Z,6.05
2023-02-20T02:21:26.839Z,8.82
2023-02-20T02:24:25.433Z,6.72
2023-02-20T02:27:25.568Z,7.78
2023-02-20T02:30:13.041Z,8.68
2023-02-20T02:33:04.701Z,4.47
2023-02-20T02:36:06.821Z,6.00
2023-02-20T02:38:41.595Z,9.75
2023-02-20T02:41:14.248Z,6.43
2023-02-20T02:43:50.342Z,5.53
2023-02-20T02:46:24.988Z,10.45
2023-02-20T02:48:58.477Z,6.80
2023-02-20T02:51:32.314Z,6.82
2023-02-20T02:54:07.544Z,7.43
2023-02-20T02:56:35.956Z,7.55
2023-02-20T02:59:04.131Z,9.98
2023-02-20T03:01:34.595Z,6.38
2023-02-20T03:04:05.277Z,7.65
2023-02-20T03:06:39.554Z,8.77
2023-02-20T03:09:11.654Z,8.13
2023-02-20T03:11:41.155Z,9.25
2023-02-20T03:14:30.815Z,9.15
2023-02-20T03:17:04.397Z,7.28
2023-02-20T03:19:36.983Z,15.15
2023-02-20T03:22:12.660Z,10.20
2023-02-20T03:24:55.910Z,9.77
2023-02-20T03:27:30.469Z,13.65
2023-02-20T03:30:00.377Z,8.73
2023-02-20T03:32:48.990Z,7.70
2023-02-20T03:35:34.864Z,9.60
2023-02-20T03:38:25.003Z,6.57
2023-02-20T03:41:10.810Z,12.77
2023-02-20T03:43:40.365Z,10.98
2023-02-20T03:46:13.472Z,12.73
2023-02-20T03:48:47.491Z,12.80
2023-02-20T03:51:15.566Z,11.35
2023-02-20T03:53:46.314Z,4.70
2023-02-20T03:56:17.730Z,5.68
2023-02-20T03:58:50.927Z,12.18
2023-02-20T04:01:23.063Z,11.75
2023-02-20T04:03:53.057Z,12.48
2023-02-20T04:06:24.515Z,11.43
2023-02-20T04:08:57.457Z,14.88
2023-02-20T04:11:28.666Z,10.75
2023-02-20T04:13:57.104Z,15.98
2023-02-20T04:16:25.907Z,10.52
2023-02-20T04:21:24.880Z,9.40
2023-02-20T04:24:03.630Z,6.75
2023-02-20T04:26:31.482Z,9.27
2023-02-20T04:28:58.977Z,15.25
2023-02-20T04:31:28.174Z,10.68
2023-02-20T04:33:55.670Z,10.38
2023-02-20T04:36:23.500Z,3.90
2023-02-20T04:38:50.990Z,16.90
2023-02-20T04:41:20.035Z,13.90
2023-02-20T04:43:49.132Z,10.10
2023-02-20T04:46:17.707Z,11.98
2023-02-20T04:48:45.435Z,11.13
2023-02-20T04:51:12.871Z,7.32
2023-02-20T04:53:40.352Z,4.45
2023-02-20T04:56:08.062Z,9.13
2023-02-20T04:58:37.248Z,11.65
2023-02-20T05:01:04.758Z,5.68
2023-02-20T05:03:32.299Z,8.90
2023-02-20T05:05:59.763Z,19.40
2023-02-20T05:08:27.205Z,6.65
2023-02-20T05:10:54.633Z,9.90
2023-02-20T05:13:22.076Z,7.32
2023-02-20T05:15:51.199Z,10.43
2023-02-20T05:18:25.431Z,1.30
2023-02-20T05:21:10.472Z,10.88
2023-02-20T05:23:37.914Z,7.43
2023-02-20T05:26:10.428Z,6.72
2023-02-20T05:28:39.581Z,7.75
2023-02-20T05:31:08.778Z,8.07
2023-02-20T05:33:36.331Z,7.85
2023-02-20T05:36:03.816Z,11.10
2023-02-20T05:38:31.461Z,13.57
2023-02-20T05:40:59.050Z,7.57
2023-02-20T05:43:26.473Z,7.72
2023-02-20T05:45:53.961Z,5.80
2023-02-20T05:48:22.767Z,6.43
2023-02-20T05:50:50.491Z,6.82
2023-02-20T05:53:18.016Z,8.40
2023-02-20T05:55:45.455Z,6.72
2023-02-20T05:58:12.891Z,11.68
2023-02-20T06:00:40.355Z,7.57
2023-02-20T06:03:08.061Z,10.48
2023-02-20T06:05:37.136Z,6.80
2023-02-20T06:08:04.904Z,7.38
2023-02-20T06:10:32.512Z,1.92
2023-02-20T06:13:00.279Z,8.38
2023-02-20T06:15:27.867Z,5.65
2023-02-20T06:17:55.400Z,10.35
2023-02-20T06:20:22.867Z,7.28
2023-02-20T06:22:51.675Z,11.70
2023-02-20T06:32:41.733Z,7.63
2023-02-20T06:35:09.814Z,10.25
2023-02-20T06:37:37.286Z,5.10
2023-02-20T06:40:07.325Z,8.00
2023-02-20T06:42:34.815Z,10.13
2023-02-20T06:45:02.536Z,11.63
2023-02-20T06:47:29.987Z,4.50
2023-02-20T06:49:57.480Z,11.68
2023-02-20T06:52:25.034Z,5.70
2023-02-20T06:54:54.073Z,4.40
2023-02-20T06:57:22.992Z,3.85
2023-02-20T06:59:50.462Z,8.95
2023-02-20T07:02:18.404Z,7.90
2023-02-20T07:04:49.058Z,5.15
2023-02-20T07:07:18.942Z,3.72
2023-02-20T07:09:46.408Z,7.97
2023-02-20T07:12:13.866Z,5.57
2023-02-20T07:14:42.845Z,2.65
2023-02-20T07:17:10.314Z,6.68
2023-02-20T07:19:37.815Z,8.48
2023-02-20T07:22:05.266Z,8.77
2023-02-20T07:24:32.783Z,7.13
2023-02-20T07:27:00.292Z,7.57
2023-02-20T07:29:27.693Z,4.93
2023-02-20T07:31:56.722Z,4.53
2023-02-20T07:34:24.201Z,10.15
2023-02-20T07:36:51.664Z,7.82
2023-02-20T07:39:19.125Z,6.45
2023-02-20T07:41:46.697Z,10.00
2023-02-20T07:44:14.823Z,4.25
2023-02-20T07:46:42.658Z,7.97
2023-02-20T07:49:11.417Z,8.70
2023-02-20T07:51:39.045Z,11.00
2023-02-20T07:54:06.662Z,5.78
2023-02-20T07:56:34.123Z,6.07
2023-02-20T07:59:01.559Z,6.93
2023-02-20T08:01:29.148Z,7.80
2023-02-20T08:03:56.607Z,6.57
2023-02-20T08:06:25.428Z,2.70
2023-02-20T08:11:22.105Z,2.35
2023-02-20T08:13:50.278Z,8.07
2023-02-20T08:16:17.961Z,0.68
2023-02-20T08:18:45.954Z,5.70
2023-02-20T08:21:13.442Z,4.75
2023-02-20T08:23:42.238Z,3.40
2023-02-20T08:28:37.582Z,6.75
2023-02-20T08:31:05.586Z,1.58
2023-02-20T08:33:33.050Z,4.03
2023-02-20T08:36:00.606Z,5.93
2023-02-20T08:38:30.739Z,7.10
2023-02-20T08:40:59.849Z,4.63
2023-02-20T08:43:28.277Z,3.17
2023-02-20T08:45:56.122Z,8.93
2023-02-20T08:48:23.673Z,5.65
2023-02-20T08:50:51.275Z,4.00
2023-02-20T08:53:18.713Z,6.22
2023-02-20T08:55:46.366Z,3.17
2023-02-20T08:58:15.154Z,3.92
2023-02-20T09:03:10.036Z,5.30
2023-02-20T09:05:39.292Z,5.07
2023-02-20T09:08:07.048Z,2.03
2023-02-20T09:10:34.613Z,2.70
2023-02-20T09:13:02.970Z,4.82
2023-02-20T09:15:35.873Z,1.80
2023-02-20T09:18:03.606Z,4.22
2023-02-20T09:20:31.185Z,2.92
2023-02-20T09:22:59.884Z,3.40
2023-02-20T09:27:55.017Z,6.07
2023-02-20T09:30:23.127Z,4.05
2023-02-20T09:32:52.774Z,4.47
2023-02-20T09:35:22.167Z,2.28
2023-02-20T09:37:49.990Z,6.05
2023-02-20T09:40:18.010Z,1.75
2023-02-20T09:42:58.931Z,3.83
2023-02-20T09:45:31.972Z,4.57
2023-02-20T09:48:13.192Z,5.65
2023-02-20T09:50:46.999Z,3.63
2023-02-20T09:53:22.511Z,3.35
2023-02-20T09:55:50.767Z,2.83
2023-02-20T09:58:24.273Z,1.38
2023-02-20T10:00:52.964Z,4.57
2023-02-20T10:05:56.790Z,1.80
2023-02-20T10:08:26.449Z,3.78
2023-02-20T10:10:58.774Z,4.25
2023-02-20T10:13:39.689Z,2.05
2023-02-20T10:16:20.695Z,4.55
2023-02-20T10:21:37.304Z,2.13
2023-02-20T10:24:17.451Z,4.55
2023-02-20T10:26:49.925Z,1.20
2023-02-20T10:29:22.645Z,3.20
2023-02-20T10:31:54.516Z,5.20
2023-02-20T10:34:26.415Z,1.25
2023-02-20T10:36:57.613Z,0.90
2023-02-20T10:39:26.509Z,3.40
2023-02-20T10:41:59.959Z,4.65
2023-02-20T10:44:35.530Z,2.42
2023-02-20T10:47:14.602Z,2.50
2023-02-20T10:49:52.687Z,1.83
2023-02-20T10:52:34.328Z,3.60
2023-02-20T10:55:10.071Z,2.40
2023-02-20T10:57:42.614Z,3.38
2023-02-20T11:00:14.927Z,2.92
2023-02-20T11:02:47.131Z,3.42
2023-02-20T11:05:22.294Z,3.45
2023-02-20T11:07:50.261Z,1.10
2023-02-20T11:10:18.509Z,2.47
2023-02-20T11:12:51.593Z,2.90
2023-02-20T11:15:22.430Z,1.75
2023-02-20T11:17:53.177Z,1.27
2023-02-20T11:20:47.161Z,4.32
2023-02-20T11:23:37.424Z,3.65
2023-02-20T11:26:16.560Z,3.72
2023-02-20T11:28:44.222Z,5.28
2023-02-20T11:31:11.881Z,3.75
2023-02-20T11:33:47.827Z,2.17
2023-02-20T11:36:20.877Z,4.43
2023-02-20T11:38:48.990Z,4.18
2023-02-20T11:41:27.690Z,3.28
2023-02-20T11:44:21.808Z,3.80
2023-02-20T11:47:10.330Z,1.08
2023-02-20T11:49:38.514Z,5.53
2023-02-20T11:52:17.637Z,1.98
2023-02-20T11:54:47.017Z,3.50
2023-02-20T11:57:28.115Z,1.38
2023-02-20T12:00:11.369Z,5.80
2023-02-20T12:02:49.271Z,1.77
2023-02-20T12:05:17.661Z,2.13
2023-02-20T12:07:56.654Z,5.82
2023-02-20T12:10:34.237Z,4.85
2023-02-20T12:13:01.904Z,2.88
2023-02-20T12:15:30.902Z,3.08
2023-02-20T12:18:34.199Z,1.50
2023-02-20T12:21:11.530Z,4.35
2023-02-20T12:23:53.399Z,3.35
2023-02-20T12:26:37.588Z,4.72
2023-02-20T12:29:16.650Z,5.88
2023-02-20T12:31:55.874Z,1.98
2023-02-20T12:34:39.004Z,2.95
2023-02-20T12:37:15.948Z,3.65
2023-02-20T12:39:57.904Z,3.35
2023-02-20T12:42:33.274Z,3.78
2023-02-20T12:45:16.871Z,2.67
2023-02-20T12:47:46.496Z,1.58
2023-02-20T12:50:43.727Z,4.70
2023-02-20T12:53:21.042Z,2.20
2023-02-20T12:56:00.331Z,3.85
2023-02-20T12:58:39.109Z,3.42
2023-02-20T13:01:11.512Z,2.00
2023-02-20T13:03:45.909Z,1.80
2023-02-20T13:06:23.345Z,2.30
2023-02-20T13:08:59.828Z,2.28
2023-02-20T13:11:34.223Z,1.65
2023-02-20T13:14:10.136Z,2.20
2023-02-20T13:16:46.669Z,1.98
2023-02-20T13:19:21.700Z,6.13
2023-02-20T13:21:49.430Z,4.85
2023-02-20T13:24:30.885Z,2.75
2023-02-20T13:27:06.546Z,2.50
2023-02-20T13:29:36.184Z,1.67
2023-02-20T13:32:22.498Z,4.15
2023-02-20T13:34:50.056Z,3.17
2023-02-20T13:37:51.037Z,2.67
2023-02-20T13:40:38.483Z,2.92
2023-02-20T13:43:30.476Z,0.73
2023-02-20T13:46:22.351Z,2.20
2023-02-20T13:48:52.338Z,4.18
2023-02-20T13:51:33.666Z,2.83
2023-02-20T13:54:15.171Z,1.65
2023-02-20T13:56:50.035Z,2.22
2023-02-20T13:59:21.297Z,1.02
2023-02-20T14:01:56.555Z,5.68
2023-02-20T14:04:25.143Z,1.23
2023-02-20T14:09:31.175Z,1.90
2023-02-20T14:12:07.817Z,4.40
2023-02-20T14:14:39.913Z,3.60
2023-02-20T14:17:09.676Z,1.30
2023-02-20T14:19:42.377Z,2.70
2023-02-20T14:22:16.288Z,2.83
2023-02-20T14:24:43.743Z,4.80
2023-02-20T14:27:26.992Z,4.97
2023-02-20T14:30:08.400Z,1.25
2023-02-20T14:32:36.806Z,3.63
2023-02-20T14:35:13.977Z,2.22
2023-02-20T14:37:50.305Z,0.80
2023-02-20T14:40:25.358Z,2.03
2023-02-20T14:42:52.841Z,3.35
2023-02-20T14:45:26.120Z,2.85
2023-02-20T14:47:55.099Z,1.95
2023-02-20T14:50:24.933Z,1.85
2023-02-20T14:53:03.056Z,2.05
2023-02-20T14:55:30.862Z,2.08
2023-02-20T14:57:58.352Z,1.77
2023-02-20T15:00:35.754Z,2.85
2023-02-20T15:03:20.652Z,1.88
2023-02-20T15:05:52.545Z,2.20
2023-02-20T15:08:24.640Z,1.15
2023-02-20T15:10:53.577Z,1.65
2023-02-20T15:13:23.661Z,1.00
2023-02-20T15:15:55.327Z,0.75
2023-02-20T15:18:34.633Z,1.35
2023-02-20T15:21:02.614Z,6.95
2023-02-20T15:23:32.588Z,1.15
2023-02-20T15:26:20.638Z,2.17
2023-02-20T15:28:48.089Z,1.77
2023-02-20T15:31:25.076Z,3.35
2023-02-20T15:33:54.681Z,1.08
2023-02-20T15:36:24.616Z,1.58
2023-02-20T15:38:55.151Z,1.10
2023-02-20T15:41:23.682Z,2.60
2023-02-20T15:43:51.826Z,1.50
2023-02-20T15:46:20.622Z,1.90
2023-02-20T15:51:20.514Z,2.17
2023-02-20T15:53:48.389Z,1.95
2023-02-20T15:56:16.721Z,3.58
2023-02-20T16:01:12.607Z,1.90
2023-02-20T16:03:51.600Z,4.05
2023-02-20T16:06:22.602Z,3.30
2023-02-20T16:08:51.166Z,0.32
2023-02-20T16:11:19.026Z,1.58
2023-02-20T16:13:49.680Z,1.77
2023-02-20T16:16:24.468Z,1.27
2023-02-20T16:18:54.606Z,4.35
2023-02-20T16:21:24.768Z,1.52
2023-02-20T16:23:52.690Z,0.90
2023-02-20T16:26:22.662Z,1.05
2023-02-20T16:28:56.107Z,4.05
2023-02-20T16:31:34.294Z,1.33
2023-02-20T16:34:04.100Z,1.17
2023-02-20T16:36:35.045Z,1.73
2023-02-20T16:39:02.490Z,2.78
2023-02-20T16:41:30.646Z,5.13
2023-02-20T16:43:58.151Z,2.15
2023-02-20T16:46:37.606Z,4.65
2023-02-20T16:49:05.744Z,2.40
2023-02-20T16:51:33.190Z,1.35
2023-02-20T16:54:05.571Z,3.78
2023-02-20T16:56:33.045Z,2.97
2023-02-20T16:59:01.185Z,1.40
2023-02-20T17:01:29.224Z,2.35
2023-02-20T17:03:56.690Z,1.98
2023-02-20T17:06:30.733Z,3.90
2023-02-20T17:08:58.440Z,0.22
2023-02-20T17:11:27.562Z,2.30
2023-02-20T17:13:55.124Z,2.33
2023-02-20T17:16:31.506Z,4.25
2023-02-20T17:18:59.314Z,0.47
2023-02-20T17:21:26.766Z,1.77
2023-02-20T17:23:54.482Z,4.55
2023-02-20T17:26:22.026Z,1.58
2023-02-20T17:28:50.915Z,1.25
2023-02-20T17:31:18.393Z,2.47
2023-02-20T17:33:45.861Z,1.40
2023-02-20T17:36:13.620Z,2.72
2023-02-20T17:38:42.964Z,2.08
2023-02-20T17:41:10.439Z,4.93
2023-02-20T17:43:39.091Z,4.43
2023-02-20T17:48:35.429Z,5.63
2023-02-20T17:51:02.951Z,5.40
2023-02-20T17:53:30.392Z,2.65
2023-02-20T17:55:57.969Z,3.55
2023-02-20T17:58:25.441Z,3.38
2023-02-20T18:00:52.976Z,3.15
2023-02-20T18:03:21.809Z,2.83
2023-02-20T18:05:49.268Z,3.28
2023-02-20T18:08:16.708Z,3.08
2023-02-20T18:10:44.164Z,3.30
2023-02-20T18:13:11.610Z,0.98
2023-02-20T18:15:40.604Z,3.00
2023-02-20T18:18:08.226Z,2.58
2023-02-20T18:20:37.032Z,6.05
2023-02-20T18:23:04.664Z,2.13
2023-02-20T18:25:40.523Z,0.88
2023-02-20T18:28:09.022Z,5.03
2023-02-20T18:30:36.744Z,4.95
2023-02-20T18:33:04.534Z,5.55
2023-02-20T18:35:31.971Z,0.20
2023-02-20T18:38:03.646Z,2.47
2023-02-20T18:40:31.136Z,6.03
2023-02-20T18:42:58.602Z,4.60
2023-02-20T18:45:26.098Z,3.50
2023-02-20T18:47:55.134Z,4.25
2023-02-20T18:50:22.666Z,3.13
2023-02-20T18:52:50.410Z,2.10
2023-02-20T18:55:20.060Z,1.35
2023-02-20T18:57:48.880Z,6.25
2023-02-20T19:00:18.231Z,5.20
2023-02-20T19:02:46.276Z,2.58
2023-02-20T19:05:14.226Z,3.25
2023-02-20T19:07:43.299Z,4.80
2023-02-20T19:10:12.024Z,4.25
2023-02-20T19:15:09.168Z,4.97
2023-02-20T19:17:37.663Z,4.53
2023-02-20T19:20:07.358Z,2.53
2023-02-20T19:22:34.841Z,3.33
2023-02-20T19:25:03.563Z,5.15
2023-02-20T19:29:59.763Z,4.13
2023-02-20T19:32:27.331Z,5.57
2023-02-20T19:34:54.848Z,3.22
2023-02-20T19:37:22.841Z,3.38
2023-02-20T19:39:50.399Z,4.95
2023-02-20T19:42:17.996Z,5.03
2023-02-20T19:44:45.518Z,6.25
2023-02-20T19:47:16.859Z,3.33
2023-02-20T19:49:45.731Z,2.90
2023-02-20T19:52:13.458Z,4.25
2023-02-20T19:54:45.369Z,4.90
2023-02-20T19:57:13.541Z,0.70
2023-02-20T19:59:43.294Z,6.80
2023-02-20T20:02:12.092Z,6.13
2023-02-20T20:04:41.404Z,1.25
2023-02-20T20:07:09.026Z,2.55
2023-02-20T20:09:37.990Z,4.03
2023-02-20T20:12:27.942Z,4.18
2023-02-20T20:14:57.093Z,7.00
2023-02-20T20:17:24.595Z,3.08
2023-02-20T20:19:58.821Z,4.43
2023-02-20T20:24:56.596Z,3.47
2023-02-20T20:27:24.671Z,7.82
2023-02-20T20:29:52.592Z,9.95
2023-02-20T20:32:21.465Z,3.45
2023-02-20T20:34:52.303Z,3.85
2023-02-20T20:37:23.637Z,5.20
2023-02-20T20:39:51.610Z,4.57
2023-02-20T20:42:23.211Z,4.97
2023-02-20T20:44:51.152Z,3.17
2023-02-20T20:47:19.448Z,4.88
2023-02-20T20:49:47.093Z,7.15
2023-02-20T20:52:14.831Z,4.47
2023-02-20T20:54:43.618Z,2.10
2023-02-20T20:57:11.210Z,2.88
2023-02-20T20:59:41.420Z,4.45
2023-02-20T21:02:08.985Z,5.05
2023-02-20T21:04:36.477Z,5.63
2023-02-20T21:07:03.980Z,4.88
2023-02-20T21:09:31.402Z,2.50
2023-02-20T21:12:00.217Z,3.03
2023-02-20T21:14:29.686Z,2.95
2023-02-20T21:16:58.961Z,2.50
2023-02-20T21:19:26.475Z,1.52
2023-02-20T21:21:54.555Z,6.25
2023-02-20T21:24:22.227Z,4.55
2023-02-20T21:26:49.755Z,4.85
2023-02-20T21:29:18.613Z,4.60
2023-02-20T21:31:47.388Z,1.90
2023-02-20T21:34:16.847Z,3.50
2023-02-20T21:36:44.361Z,7.18
2023-02-20T21:39:11.866Z,3.47
2023-02-20T21:41:57.719Z,4.63
2023-02-20T21:44:29.944Z,4.15
2023-02-20T21:46:59.059Z,4.28
2023-02-20T21:49:27.237Z,3.03
2023-02-20T21:51:55.403Z,6.00
2023-02-20T21:54:27.027Z,2.20
2023-02-20T21:56:54.588Z,3.58
2023-02-20T21:59:21.539Z,4.90
2023-02-20T22:01:49.769Z,1.50
2023-02-20T22:04:16.385Z,4.15
2023-02-20T22:06:45.315Z,2.40
2023-02-20T22:09:33.187Z,5.57
2023-02-20T22:12:18.531Z,5.63
2023-02-20T22:15:03.768Z,2.28
2023-02-20T22:17:50.244Z,2.60
2023-02-20T22:20:35.495Z,2.05
2023-02-20T22:23:22.033Z,2.15
2023-02-20T22:26:07.279Z,4.05
2023-02-20T22:28:52.521Z,4.47
2023-02-20T22:31:37.752Z,3.65
2023-02-20T22:34:24.381Z,4.55
2023-02-20T22:37:09.734Z,6.88
2023-02-20T22:39:55.022Z,7.22
2023-02-20T22:42:40.395Z,3.63
2023-02-20T22:45:26.191Z,3.00
2023-02-20T22:48:11.574Z,3.33
2023-02-20T22:50:58.255Z,3.60
2023-02-20T22:53:43.567Z,5.43
2023-02-20T22:56:35.842Z,2.78
2023-02-20T22:59:21.158Z,6.40
2023-02-20T23:02:06.457Z,5.95
2023-02-20T23:04:51.708Z,6.65
2023-02-20T23:07:38.415Z,5.00
2023-02-20T23:10:23.506Z,2.33
2023-02-20T23:13:09.386Z,4.38
2023-02-20T23:15:54.688Z,4.43
2023-02-20T23:18:39.934Z,5.63
2023-02-20T23:21:25.235Z,1.98
2023-02-20T23:24:11.929Z,3.78
2023-02-20T23:26:57.896Z,5.63
2023-02-20T23:29:43.230Z,2.40
2023-02-20T23:32:28.605Z,4.57
2023-02-20T23:35:13.718Z,3.22
2023-02-20T23:37:58.823Z,6.75
2023-02-20T23:40:45.278Z,1.77
2023-02-20T23:43:30.655Z,3.72
2023-02-20T23:46:15.923Z,4.10
2023-02-20T23:49:01.203Z,4.88
2023-02-20T23:51:46.354Z,5.07
2023-02-20T23:54:31.859Z,3.90
2023-02-20T23:57:18.374Z,5.63
